Time;durP1;ratioP1;P1;durP2;ratioP2;P2;SDS_P1;SDS_P2;PMS_P1;PMS_P2;Temp;Humidity;BMP_temperature;BMP_pressure;BME280_temperature;BME280_humidity;BME280_pressure;Samples;Min_cycle;Max_cycle;Signal;HPM_P1;HPM_P2
2022/08/28 00:02:05;;;;;;;10.32;2.90;;;15.70;99.90;;;;;;5074083;28;20051;-57
2022/08/28 00:04:31;;;;;;;10.52;3.38;;;15.70;99.90;;;;;;5047837;28;20279;-57
2022/08/28 00:06:57;;;;;;;11.55;3.45;;;15.70;99.90;;;;;;5038561;28;20043;-56
2022/08/28 00:09:23;;;;;;;8.77;3.17;;;15.70;99.90;;;;;;5058915;28;20499;-57
2022/08/28 00:11:49;;;;;;;11.98;3.65;;;15.60;99.90;;;;;;5046148;28;20032;-57
2022/08/28 00:14:17;;;;;;;12.82;3.70;;;15.70;99.90;;;;;;5064749;28;20047;-55
2022/08/28 00:16:42;;;;;;;8.68;3.15;;;15.60;99.90;;;;;;5060528;28;20486;-55
2022/08/28 00:19:09;;;;;;;9.35;3.38;;;15.60;99.90;;;;;;5071660;28;20043;-57
2022/08/28 00:21:36;;;;;;;12.73;4.65;;;15.60;99.90;;;;;;5061549;28;20049;-55
2022/08/28 00:24:02;;;;;;;11.38;3.60;;;15.60;99.90;;;;;;5043798;28;20072;-58
2022/08/28 00:29:12;;;;;;;8.50;3.65;;;15.50;99.90;;;;;;5047882;28;20036;-55
2022/08/28 00:31:38;;;;;;;7.60;3.03;;;15.50;99.90;;;;;;5057430;28;20043;-56
2022/08/28 00:34:06;;;;;;;9.77;3.20;;;15.50;99.90;;;;;;5042822;28;20043;-57
2022/08/28 00:36:32;;;;;;;11.13;3.42;;;15.50;99.90;;;;;;5026543;28;20064;-59
2022/08/28 00:38:59;;;;;;;8.88;3.30;;;15.50;99.90;;;;;;5074301;28;20578;-56
2022/08/28 00:41:27;;;;;;;9.48;2.90;;;15.40;99.90;;;;;;5074141;28;20411;-55
2022/08/28 00:44:18;;;;;;;8.70;2.70;;;15.40;99.90;;;;;;5044923;28;20575;-57
2022/08/28 00:46:46;;;;;;;13.65;3.40;;;15.40;99.90;;;;;;5070071;28;20473;-58
2022/08/28 00:49:14;;;;;;;8.80;3.50;;;15.40;99.90;;;;;;5056605;28;20032;-55
2022/08/28 00:54:26;;;;;;;7.45;2.80;;;15.40;99.90;;;;;;5066243;28;20052;-55
2022/08/28 00:56:54;;;;;;;11.13;3.08;;;15.40;99.90;;;;;;5071762;28;20045;-56
2022/08/28 00:59:22;;;;;;;7.70;2.80;;;15.40;99.90;;;;;;5072854;28;20035;-58
2022/08/28 01:01:53;;;;;;;8.20;2.45;;;15.40;99.90;;;;;;5064658;28;20123;-56
2022/08/28 01:04:20;;;;;;;12.20;3.63;;;15.40;99.90;;;;;;5060378;28;20056;-57
2022/08/28 01:06:51;;;;;;;14.20;3.08;;;15.40;99.90;;;;;;5057711;28;20131;-57
2022/08/28 01:09:17;;;;;;;9.82;3.47;;;15.40;99.90;;;;;;5052264;28;20040;-57
2022/08/28 01:11:46;;;;;;;7.40;2.90;;;15.40;99.90;;;;;;5074557;28;20040;-55
2022/08/28 01:14:14;;;;;;;9.52;2.80;;;15.40;99.90;;;;;;5052219;28;20087;-57
2022/08/28 01:16:42;;;;;;;5.85;2.53;;;15.40;99.90;;;;;;5051234;28;20039;-57
2022/08/28 01:19:16;;;;;;;9.30;3.03;;;15.40;99.90;;;;;;5079417;28;20054;-56
2022/08/28 01:22:28;;;;;;;13.75;3.28;;;15.30;99.90;;;;;;5052909;28;20043;-57
2022/08/28 01:24:57;;;;;;;12.70;3.40;;;15.30;99.90;;;;;;4992671;28;20469;-56
2022/08/28 01:27:23;;;;;;;10.27;2.67;;;15.30;99.90;;;;;;4957416;28;20038;-57
2022/08/28 01:29:49;;;;;;;12.35;2.83;;;15.30;99.90;;;;;;5017310;28;20047;-55
2022/08/28 01:32:33;;;;;;;6.05;2.50;;;15.30;99.90;;;;;;5051739;28;20044;-56
2022/08/28 01:34:59;;;;;;;;;;;15.30;99.90;;;;;;5070286;28;20039;-55
2022/08/28 01:37:25;;;;;;;6.97;2.88;;;15.30;99.90;;;;;;5059845;28;19924;-56
2022/08/28 01:39:50;;;;;;;11.07;3.45;;;15.20;99.90;;;;;;5057074;28;20036;-56
2022/08/28 01:42:16;;;;;;;10.70;3.00;;;15.20;99.90;;;;;;5076576;28;20040;-57
2022/08/28 01:44:42;;;;;;;9.93;3.00;;;15.20;99.90;;;;;;5077804;28;20049;-58
2022/08/28 01:47:08;;;;;;;9.20;2.88;;;15.30;99.90;;;;;;5056791;28;20040;-57
2022/08/28 01:49:33;;;;;;;9.50;3.00;;;15.20;99.90;;;;;;5050482;28;20502;-57
2022/08/28 01:51:59;;;;;;;8.82;2.80;;;15.30;99.90;;;;;;5053775;28;20036;-57
2022/08/28 01:54:27;;;;;;;10.48;2.35;;;15.20;99.90;;;;;;5072118;28;20086;-56
2022/08/28 01:56:53;;;;;;;8.27;2.70;;;15.20;99.90;;;;;;5037710;28;20386;-58
2022/08/28 01:59:19;;;;;;;7.38;2.75;;;15.20;99.90;;;;;;5052108;28;20048;-57
2022/08/28 02:01:45;;;;;;;6.57;2.40;;;15.20;99.90;;;;;;5066811;28;20036;-57
2022/08/28 02:04:11;;;;;;;10.40;2.83;;;15.30;99.90;;;;;;5053667;28;20047;-57
2022/08/28 02:06:37;;;;;;;11.35;2.47;;;15.20;99.90;;;;;;5060389;28;20127;-59
2022/08/28 02:09:05;;;;;;;7.43;2.40;;;15.20;99.90;;;;;;5067267;28;20042;-57
2022/08/28 02:11:31;;;;;;;7.90;3.65;;;15.20;99.90;;;;;;5061057;28;20066;-57
2022/08/28 02:13:59;;;;;;;7.47;2.78;;;15.10;99.90;;;;;;5042730;28;20116;-56
2022/08/28 02:16:25;;;;;;;8.55;2.40;;;15.20;99.90;;;;;;5033584;28;20135;-55
2022/08/28 02:18:51;;;;;;;8.32;2.95;;;15.10;99.90;;;;;;5060400;28;21016;-57
2022/08/28 02:21:17;;;;;;;7.32;2.70;;;15.10;99.90;;;;;;5113999;22;20497;-64
2022/08/28 02:23:45;;;;;;;9.52;3.13;;;15.10;99.90;;;;;;5109099;27;20069;-65
2022/08/28 02:26:12;;;;;;;13.57;4.57;;;15.10;99.90;;;;;;5116226;27;20043;-65
2022/08/28 02:28:38;;;;;;;11.52;4.18;;;15.10;99.90;;;;;;5107977;27;20043;-64
2022/08/28 02:31:07;;;;;;;10.98;4.10;;;15.10;99.90;;;;;;5126512;27;20039;-64
2022/08/28 02:33:36;;;;;;;9.52;4.30;;;15.00;99.90;;;;;;5110913;27;20519;-64
2022/08/28 02:36:02;;;;;;;13.27;4.05;;;15.00;99.90;;;;;;5115348;27;20111;-63
2022/08/28 02:38:28;;;;;;;7.88;4.07;;;15.00;99.90;;;;;;5103513;27;20491;-63
2022/08/28 02:40:54;;;;;;;12.65;3.75;;;15.00;99.90;;;;;;5092412;27;20134;-64
2022/08/28 02:43:20;;;;;;;8.55;3.58;;;15.00;99.90;;;;;;5105540;27;20847;-64
2022/08/28 02:45:45;;;;;;;9.60;3.28;;;14.90;99.90;;;;;;5104704;27;20036;-66
2022/08/28 02:48:11;;;;;;;13.07;3.42;;;14.90;99.90;;;;;;5094604;27;20046;-65
2022/08/28 02:50:37;;;;;;;8.55;3.33;;;14.90;99.90;;;;;;5107577;27;20135;-64
2022/08/28 02:53:02;;;;;;;8.93;2.60;;;14.90;99.90;;;;;;5088253;28;20061;-65
2022/08/28 02:55:28;;;;;;;7.45;2.60;;;14.90;99.90;;;;;;5107152;27;20264;-65
2022/08/28 02:57:54;;;;;;;10.73;2.42;;;14.90;99.90;;;;;;5112571;27;20034;-64
2022/08/28 03:00:23;;;;;;;15.77;3.42;;;14.90;99.90;;;;;;5107464;27;20131;-64
2022/08/28 03:02:50;;;;;;;10.40;2.85;;;14.80;99.90;;;;;;5111002;27;20126;-65
2022/08/28 03:05:19;;;;;;;6.85;2.60;;;14.80;99.90;;;;;;5108112;27;21366;-65
2022/08/28 03:07:46;;;;;;;8.60;2.30;;;14.80;99.90;;;;;;5110823;27;20146;-65
2022/08/28 03:10:14;;;;;;;7.53;2.65;;;14.80;99.90;;;;;;5106345;27;20043;-64
2022/08/28 03:12:40;;;;;;;6.53;1.83;;;14.80;99.90;;;;;;5099771;27;20043;-65
2022/08/28 03:15:06;;;;;;;5.47;1.98;;;14.90;99.90;;;;;;5114934;27;20063;-65
2022/08/28 03:17:33;;;;;;;8.13;2.50;;;14.90;99.90;;;;;;5113835;27;20035;-64
2022/08/28 03:19:59;;;;;;;9.00;2.75;;;14.80;99.90;;;;;;5118191;27;20039;-64
2022/08/28 03:25:11;;;;;;;9.27;2.70;;;14.80;99.90;;;;;;5106662;27;20043;-65
2022/08/28 03:27:37;;;;;;;9.90;2.38;;;14.70;99.90;;;;;;5106236;27;20050;-63
2022/08/28 03:30:06;;;;;;;10.55;2.50;;;14.70;99.90;;;;;;5100165;27;20047;-63
2022/08/28 03:32:32;;;;;;;5.85;2.58;;;14.70;99.90;;;;;;5095178;27;21326;-65
2022/08/28 03:34:59;;;;;;;5.63;1.95;;;14.70;99.90;;;;;;5112464;27;20154;-64
2022/08/28 03:37:25;;;;;;;8.02;2.13;;;14.70;99.90;;;;;;5113089;27;20092;-66
2022/08/28 03:39:50;;;;;;;8.30;2.25;;;14.70;99.90;;;;;;5098345;27;20360;-65
2022/08/28 03:42:16;;;;;;;7.32;2.20;;;14.70;99.90;;;;;;5114536;27;20027;-65
2022/08/28 03:44:42;;;;;;;7.93;2.30;;;14.70;99.90;;;;;;5111350;27;20035;-64
2022/08/28 03:47:07;;;;;;;9.63;2.42;;;14.70;99.90;;;;;;5095171;27;20582;-65
2022/08/28 03:49:33;;;;;;;9.30;2.83;;;14.70;99.90;;;;;;5110720;27;20035;-65
2022/08/28 03:51:59;;;;;;;6.82;2.50;;;14.70;99.90;;;;;;5113041;27;20420;-65
2022/08/28 03:54:25;;;;;;;7.70;2.05;;;14.70;99.90;;;;;;5096672;27;20028;-64
2022/08/28 03:56:51;;;;;;;8.23;2.35;;;14.70;99.90;;;;;;5114867;27;20529;-64
2022/08/28 03:59:18;;;;;;;7.88;2.22;;;14.70;99.90;;;;;;5100147;27;20050;-65
2022/08/28 04:01:45;;;;;;;5.90;2.15;;;14.70;99.90;;;;;;5110865;27;20071;-66
2022/08/28 04:04:11;;;;;;;9.98;2.80;;;14.70;99.90;;;;;;5117281;27;20079;-65
2022/08/28 04:06:37;;;;;;;9.55;2.88;;;14.70;99.90;;;;;;5118089;27;20035;-65
2022/08/28 04:09:03;;;;;;;8.77;2.40;;;14.70;99.90;;;;;;5092304;27;20037;-65
2022/08/28 04:11:29;;;;;;;5.38;2.10;;;14.70;99.90;;;;;;5113657;27;20050;-64
2022/08/28 04:13:55;;;;;;;10.77;2.35;;;14.70;99.90;;;;;;5081692;27;20046;-65
2022/08/28 04:16:21;;;;;;;6.70;2.53;;;14.70;99.90;;;;;;5104446;27;20378;-65
2022/08/28 04:18:48;;;;;;;8.32;2.30;;;14.80;99.90;;;;;;5108965;27;20105;-64
2022/08/28 04:21:22;;;;;;;7.03;2.33;;;14.80;99.90;;;;;;5115514;27;20068;-65
2022/08/28 04:23:49;;;;;;;5.30;1.80;;;14.80;99.90;;;;;;5109286;27;20046;-65
2022/08/28 04:26:19;;;;;;;9.20;2.28;;;14.80;99.90;;;;;;5111640;27;20234;-65
2022/08/28 04:28:46;;;;;;;7.80;1.95;;;14.80;99.90;;;;;;5095171;27;20043;-64
2022/08/28 04:31:13;;;;;;;8.38;2.00;;;14.80;99.90;;;;;;5112471;27;20417;-63
2022/08/28 04:33:40;;;;;;;7.38;1.92;;;14.90;99.90;;;;;;5108151;27;20516;-65
2022/08/28 04:36:10;;;;;;;8.20;2.83;;;14.90;99.90;;;;;;5112616;27;20035;-65
2022/08/28 04:38:36;;;;;;;6.40;2.10;;;14.90;99.90;;;;;;5103533;27;20119;-65
2022/08/28 04:41:04;;;;;;;6.15;2.25;;;15.00;99.90;;;;;;5106394;27;20067;-65
2022/08/28 04:43:30;;;;;;;6.22;1.88;;;15.00;99.90;;;;;;5088061;27;20165;-65
2022/08/28 04:45:56;;;;;;;7.72;2.53;;;15.00;99.90;;;;;;5088135;27;20100;-65
2022/08/28 04:48:21;;;;;;;14.18;2.92;;;15.10;99.90;;;;;;5107499;27;20400;-63
2022/08/28 04:50:48;;;;;;;5.82;2.05;;;15.10;99.90;;;;;;5114355;27;20031;-65
2022/08/28 04:53:17;;;;;;;4.88;1.80;;;15.10;99.90;;;;;;5105654;27;20490;-64
2022/08/28 04:55:51;;;;;;;9.00;2.95;;;15.10;99.90;;;;;;5090729;27;20046;-65
2022/08/28 04:58:18;;;;;;;7.93;2.00;;;15.20;99.90;;;;;;5099361;27;20042;-65
2022/08/28 05:00:47;;;;;;;7.32;2.05;;;15.20;99.90;;;;;;5114550;27;20063;-65
2022/08/28 05:03:13;;;;;;;6.85;2.00;;;15.30;99.90;;;;;;5108960;27;20158;-63
2022/08/28 05:05:44;;;;;;;5.03;1.90;;;15.20;99.90;;;;;;5108247;27;20031;-65
2022/08/28 05:08:12;;;;;;;7.43;2.40;;;15.30;99.90;;;;;;5093576;28;20405;-66
2022/08/28 05:10:39;;;;;;;5.03;1.52;;;15.40;99.90;;;;;;5111444;27;20047;-64
2022/08/28 05:13:05;;;;;;;7.57;2.00;;;15.40;99.90;;;;;;5105637;27;20122;-66
2022/08/28 05:15:32;;;;;;;7.88;2.10;;;15.40;99.90;;;;;;5095366;27;20051;-64
2022/08/28 05:17:58;;;;;;;10.57;2.13;;;15.50;99.90;;;;;;5098499;27;21150;-65
2022/08/28 05:20:24;;;;;;;5.22;1.75;;;15.50;99.90;;;;;;5112129;27;20035;-65
2022/08/28 05:22:50;;;;;;;6.97;1.77;;;15.50;99.90;;;;;;5117045;27;20220;-65
2022/08/28 05:25:16;;;;;;;9.73;2.00;;;15.60;99.90;;;;;;5089727;27;20035;-64
2022/08/28 05:27:42;;;;;;;5.93;2.03;;;15.60;99.90;;;;;;5107557;27;20043;-65
2022/08/28 05:30:09;;;;;;;6.28;2.00;;;15.60;99.90;;;;;;5092827;27;20312;-64
2022/08/28 05:32:36;;;;;;;5.28;1.70;;;15.60;99.90;;;;;;5106612;27;20397;-65
2022/08/28 05:35:02;;;;;;;11.10;2.55;;;15.60;99.90;;;;;;5101977;27;20043;-64
2022/08/28 05:37:28;;;;;;;8.40;2.42;;;15.70;99.90;;;;;;5108766;27;20035;-64
2022/08/28 05:39:54;;;;;;;6.65;2.25;;;15.70;99.90;;;;;;5103542;27;20407;-65
2022/08/28 05:42:20;;;;;;;6.95;1.92;;;15.80;99.90;;;;;;5107669;27;20531;-65
2022/08/28 05:44:46;;;;;;;6.07;1.67;;;15.80;99.90;;;;;;5102913;27;20031;-65
2022/08/28 05:47:12;;;;;;;7.95;2.00;;;15.90;99.90;;;;;;5112385;27;20039;-65
2022/08/28 05:49:39;;;;;;;7.50;1.55;;;15.90;99.90;;;;;;5092312;27;20059;-65
2022/08/28 05:52:05;;;;;;;4.50;1.50;;;15.90;99.90;;;;;;5097781;27;20130;-64
2022/08/28 05:54:30;;;;;;;7.13;2.10;;;16.00;99.90;;;;;;5108886;27;20576;-65
2022/08/28 05:56:56;;;;;;;7.25;1.80;;;16.00;99.90;;;;;;5088319;27;20028;-66
2022/08/28 05:59:23;;;;;;;10.73;2.30;;;16.10;99.90;;;;;;5092943;27;20501;-65
2022/08/28 06:01:49;;;;;;;6.38;1.60;;;16.10;99.90;;;;;;5094829;27;20054;-66
2022/08/28 06:04:22;;;;;;;7.38;2.15;;;16.10;99.90;;;;;;5088192;27;20042;-65
2022/08/28 06:06:48;;;;;;;8.43;2.25;;;16.10;99.90;;;;;;5100670;27;20127;-64
2022/08/28 06:09:23;;;;;;;7.47;2.10;;;16.20;99.90;;;;;;5091873;27;20429;-64
2022/08/28 06:11:49;;;;;;;6.82;2.08;;;16.20;99.90;;;;;;5095122;27;20172;-64
2022/08/28 06:14:17;;;;;;;4.18;1.63;;;16.30;99.90;;;;;;5112377;27;20039;-65
2022/08/28 06:16:46;;;;;;;7.93;1.50;;;16.30;99.90;;;;;;5113687;27;20096;-64
2022/08/28 06:19:12;;;;;;;11.63;2.25;;;16.40;99.90;;;;;;5104692;27;20036;-65
2022/08/28 06:21:41;;;;;;;7.00;1.80;;;16.50;99.90;;;;;;5110938;27;20112;-64
2022/08/28 06:24:09;;;;;;;9.55;1.90;;;16.60;99.90;;;;;;5116496;27;20073;-63
2022/08/28 06:26:34;;;;;;;7.20;1.92;;;16.60;99.90;;;;;;5107627;27;20047;-64
2022/08/28 06:29:02;;;;;;;5.72;1.67;;;16.70;99.90;;;;;;5103837;27;20053;-64
2022/08/28 06:31:28;;;;;;;5.55;1.52;;;16.80;99.90;;;;;;5111152;27;20055;-62
2022/08/28 06:33:56;;;;;;;7.18;2.00;;;16.90;99.90;;;;;;5104356;27;20118;-63
2022/08/28 06:36:26;;;;;;;5.13;2.08;;;16.90;99.90;;;;;;5098458;27;20039;-63
2022/08/28 06:38:54;;;;;;;5.47;1.60;;;17.00;99.90;;;;;;5105863;27;20119;-64
2022/08/28 06:41:20;;;;;;;4.63;1.42;;;17.00;99.90;;;;;;5117008;27;20416;-63
2022/08/28 06:43:47;;;;;;;5.05;1.38;;;17.10;99.90;;;;;;5116975;27;20042;-63
2022/08/28 06:46:12;;;;;;;5.50;2.17;;;17.20;99.90;;;;;;5119596;27;20419;-62
2022/08/28 06:48:38;;;;;;;5.78;1.83;;;17.30;99.90;;;;;;5117051;27;20027;-62
2022/08/28 06:51:06;;;;;;;4.65;1.70;;;17.30;99.90;;;;;;5112714;27;20039;-63
2022/08/28 06:53:32;;;;;;;10.45;2.33;;;17.40;99.90;;;;;;5112143;27;20587;-63
2022/08/28 06:56:07;;;;;;;5.45;1.77;;;17.50;99.90;;;;;;5108243;27;20123;-63
2022/08/28 06:58:39;;;;;;;7.45;1.85;;;17.60;99.90;;;;;;5115168;27;20127;-63
2022/08/28 07:01:05;;;;;;;4.70;1.90;;;17.60;99.90;;;;;;5113830;27;20047;-66
2022/08/28 07:03:32;;;;;;;7.03;2.08;;;17.80;99.90;;;;;;5101335;27;22801;-63
2022/08/28 07:05:59;;;;;;;6.63;2.15;;;17.80;99.90;;;;;;5103169;27;20039;-63
2022/08/28 07:08:26;;;;;;;6.40;1.83;;;17.80;99.90;;;;;;5106481;27;20417;-62
2022/08/28 07:10:52;;;;;;;6.90;1.80;;;17.80;99.90;;;;;;5101395;27;20362;-64
2022/08/28 07:13:20;;;;;;;8.10;1.90;;;17.80;99.90;;;;;;5108882;27;20042;-64
2022/08/28 07:15:46;;;;;;;7.65;2.60;;;17.70;99.90;;;;;;5084323;28;20165;-65
2022/08/28 07:18:12;;;;;;;8.55;2.10;;;17.70;99.90;;;;;;5104874;28;20035;-62
2022/08/28 07:20:37;;;;;;;5.13;1.63;;;17.60;99.90;;;;;;5106719;28;20528;-63
2022/08/28 07:23:04;;;;;;;10.32;1.85;;;17.60;99.90;;;;;;5105514;28;20130;-62
2022/08/28 07:25:30;;;;;;;9.23;2.10;;;17.70;99.90;;;;;;5099560;27;22637;-62
2022/08/28 07:27:56;;;;;;;6.95;2.35;;;17.70;99.90;;;;;;5109812;27;20051;-62
2022/08/28 07:30:22;;;;;;;7.85;2.25;;;17.70;99.90;;;;;;5103569;28;20047;-62
2022/08/28 07:32:48;;;;;;;5.60;1.92;;;17.80;99.90;;;;;;5099004;27;20051;-63
2022/08/28 07:35:15;;;;;;;6.05;1.70;;;17.70;99.90;;;;;;5085117;28;20127;-63
2022/08/28 07:37:42;;;;;;;7.70;1.90;;;17.70;99.90;;;;;;5100782;27;20122;-64
2022/08/28 07:40:09;;;;;;;7.97;2.08;;;17.60;99.90;;;;;;5099613;27;20047;-62
2022/08/28 07:45:20;;;;;;;10.18;1.90;;;17.90;99.90;;;;;;5107441;27;20040;-63
2022/08/28 07:47:50;;;;;;;7.88;2.08;;;18.00;99.90;;;;;;5104316;27;20039;-62
2022/08/28 07:50:16;;;;;;;8.05;1.50;;;18.20;99.90;;;;;;5117189;27;20125;-62
2022/08/28 07:52:41;;;;;;;7.53;1.80;;;18.40;99.90;;;;;;5103077;27;20034;-65
2022/08/28 07:55:07;;;;;;;5.72;1.92;;;18.50;99.90;;;;;;5111864;27;20031;-64
2022/08/28 07:57:33;;;;;;;5.65;1.75;;;18.60;99.90;;;;;;5115419;27;20160;-65
2022/08/28 07:59:59;;;;;;;5.88;1.65;;;18.80;99.70;;;;;;5133006;27;20047;-65
2022/08/28 08:02:25;;;;;;;7.53;2.08;;;18.90;99.40;;;;;;5122066;27;20035;-65
2022/08/28 08:04:51;;;;;;;5.28;1.80;;;18.90;99.30;;;;;;5116930;27;20047;-62
2022/08/28 08:07:18;;;;;;;8.63;2.03;;;18.90;99.30;;;;;;5079629;27;20047;-64
2022/08/28 08:09:45;;;;;;;8.65;2.40;;;18.80;98.80;;;;;;5101876;27;20043;-65
2022/08/28 08:12:13;;;;;;;5.47;1.50;;;18.60;98.60;;;;;;5100833;27;20941;-65
2022/08/28 08:14:40;;;;;;;9.05;2.17;;;18.50;99.00;;;;;;5116164;27;20107;-65
2022/08/28 08:17:07;;;;;;;7.57;1.88;;;18.40;99.40;;;;;;5113863;27;20592;-65
2022/08/28 08:19:32;;;;;;;9.82;2.38;;;18.40;99.60;;;;;;5139924;27;20119;-66
2022/08/28 08:21:58;;;;;;;6.75;2.00;;;18.40;99.70;;;;;;5215032;22;20437;-59
2022/08/28 08:24:27;;;;;;;9.18;1.85;;;18.60;99.80;;;;;;5060997;28;20051;-60
2022/08/28 08:26:59;;;;;;;6.82;2.00;;;18.60;99.70;;;;;;5071049;28;20071;-59
2022/08/28 08:29:26;;;;;;;6.93;1.90;;;18.60;99.60;;;;;;5070564;28;20485;-62
2022/08/28 08:31:57;;;;;;;7.63;1.70;;;18.60;99.60;;;;;;5069365;28;20048;-59
2022/08/28 08:34:23;;;;;;;9.02;2.20;;;18.60;99.50;;;;;;5057451;28;20198;-59
2022/08/28 08:36:49;;;;;;;7.80;1.92;;;18.70;99.60;;;;;;5074968;28;20553;-59
2022/08/28 08:39:14;;;;;;;5.97;1.80;;;18.90;99.70;;;;;;5079757;28;20040;-59
2022/08/28 08:41:49;;;;;;;7.30;1.92;;;19.10;99.50;;;;;;5076682;28;20221;-61
2022/08/28 08:44:24;;;;;;;5.88;1.58;;;19.30;98.70;;;;;;5071677;28;20525;-61
2022/08/28 08:47:09;;;;;;;6.65;1.70;;;19.30;98.80;;;;;;5079634;28;20036;-59
2022/08/28 08:49:38;;;;;;;10.68;2.20;;;19.20;98.70;;;;;;5069583;28;20032;-61
2022/08/28 08:52:10;;;;;;;4.93;1.90;;;19.00;98.60;;;;;;5075863;28;20052;-61
2022/08/28 08:54:40;;;;;;;6.55;1.80;;;18.80;98.40;;;;;;5076581;28;20238;-59
2022/08/28 08:57:13;;;;;;;4.35;1.67;;;18.80;98.60;;;;;;5083130;28;20563;-58
2022/08/28 08:59:40;;;;;;;7.75;2.10;;;18.90;98.50;;;;;;5073131;28;20044;-60
2022/08/28 09:02:20;;;;;;;4.55;1.80;;;19.20;98.40;;;;;;5077321;28;20071;-60
2022/08/28 09:04:53;;;;;;;4.70;1.45;;;19.50;98.30;;;;;;5067855;28;20422;-60
2022/08/28 09:07:25;;;;;;;6.18;1.73;;;19.70;97.90;;;;;;5070576;28;20191;-60
2022/08/28 09:09:53;;;;;;;4.07;2.08;;;20.00;97.80;;;;;;5077557;28;20036;-59
2022/08/28 09:12:33;;;;;;;6.82;2.00;;;20.10;97.40;;;;;;5068190;28;20040;-60
2022/08/28 09:15:11;;;;;;;7.88;1.90;;;20.20;97.20;;;;;;5081867;28;20427;-60
2022/08/28 09:17:46;;;;;;;8.35;2.35;;;20.20;96.90;;;;;;5067913;28;20178;-60
2022/08/28 09:20:16;;;;;;;3.85;1.85;;;20.20;96.60;;;;;;5063360;28;20043;-59
2022/08/28 09:22:44;;;;;;;3.33;1.40;;;20.30;96.90;;;;;;5076578;28;20489;-59
2022/08/28 09:25:32;;;;;;;5.45;1.65;;;20.40;96.20;;;;;;5061695;28;20521;-60
2022/08/28 09:28:08;;;;;;;6.18;1.98;;;20.30;96.00;;;;;;5076853;28;20126;-60
2022/08/28 09:30:42;;;;;;;7.57;2.05;;;20.10;95.90;;;;;;5074269;28;20521;-59
2022/08/28 09:33:08;;;;;;;8.07;1.98;;;19.90;95.90;;;;;;5064218;28;20045;-59
2022/08/28 09:35:36;;;;;;;5.22;1.73;;;19.80;96.30;;;;;;5067412;28;20043;-59
2022/08/28 09:38:23;;;;;;;8.60;2.10;;;19.80;96.20;;;;;;5070312;28;20690;-61
2022/08/28 09:43:45;;;;;;;3.63;1.90;;;20.10;95.30;;;;;;5067714;28;20040;-60
2022/08/28 09:46:29;;;;;;;4.55;2.10;;;20.00;95.80;;;;;;5079291;28;20054;-60
2022/08/28 09:49:11;;;;;;;5.45;1.80;;;20.00;95.80;;;;;;5073571;28;20040;-59
2022/08/28 09:51:38;;;;;;;6.57;2.25;;;20.00;96.10;;;;;;5076056;28;20407;-60
2022/08/28 09:54:35;;;;;;;7.82;2.75;;;20.20;96.00;;;;;;5079285;28;20047;-60
2022/08/28 09:57:02;;;;;;;7.35;2.20;;;20.50;95.70;;;;;;5053750;28;20225;-60
2022/08/28 09:59:28;;;;;;;6.15;1.98;;;20.80;96.00;;;;;;5084813;28;20036;-60
2022/08/28 10:01:57;;;;;;;6.28;2.13;;;21.00;95.30;;;;;;5069579;28;20032;-60
2022/08/28 10:04:28;;;;;;;7.40;2.03;;;21.00;95.00;;;;;;5064474;28;20125;-60
2022/08/28 10:07:04;;;;;;;3.75;1.33;;;20.70;94.10;;;;;;5054040;28;20044;-60
2022/08/28 10:10:01;;;;;;;7.80;2.05;;;20.80;94.70;;;;;;5070860;28;20379;-60
2022/08/28 10:12:49;;;;;;;5.18;1.67;;;20.70;93.70;;;;;;5072153;28;20132;-60
2022/08/28 10:15:23;;;;;;;5.30;1.80;;;20.40;94.20;;;;;;5062932;28;20039;-60
2022/08/28 10:18:14;;;;;;;8.48;1.95;;;20.40;94.70;;;;;;5077119;28;20049;-59
2022/08/28 10:21:16;;;;;;;6.63;2.00;;;20.60;94.60;;;;;;5070681;28;20036;-60
2022/08/28 10:23:48;;;;;;;4.03;1.92;;;20.90;94.30;;;;;;5069821;28;20504;-60
2022/08/28 10:26:25;;;;;;;7.30;2.10;;;21.00;93.00;;;;;;5073067;28;20072;-59
2022/08/28 10:29:19;;;;;;;6.47;1.73;;;21.00;93.30;;;;;;5083101;28;20039;-60
2022/08/28 10:32:09;;;;;;;6.22;2.45;;;20.80;92.70;;;;;;5074061;28;20387;-60
2022/08/28 10:35:01;;;;;;;4.07;1.92;;;20.60;92.80;;;;;;5074091;28;20047;-59
2022/08/28 10:37:42;;;;;;;6.97;1.73;;;20.80;93.40;;;;;;5075194;28;20495;-60
2022/08/28 10:40:23;;;;;;;5.50;2.05;;;21.00;93.30;;;;;;5071247;28;20043;-60
2022/08/28 10:43:25;;;;;;;6.28;1.92;;;21.00;93.00;;;;;;5050301;28;20068;-59
2022/08/28 10:45:51;;;;;;;4.15;1.88;;;21.00;92.80;;;;;;5049435;28;20044;-60
2022/08/28 10:48:22;;;;;;;5.03;2.00;;;21.10;92.80;;;;;;5079939;28;20044;-58
2022/08/28 10:51:01;;;;;;;5.22;2.55;;;21.30;91.90;;;;;;5062121;28;20138;-60
2022/08/28 10:53:37;;;;;;;3.80;1.60;;;21.50;91.60;;;;;;5080531;28;20040;-59
2022/08/28 10:56:13;;;;;;;5.20;1.83;;;21.40;90.80;;;;;;5075967;28;20051;-61
2022/08/28 10:58:39;;;;;;;4.00;1.70;;;21.50;92.00;;;;;;5065721;28;20040;-59
2022/08/28 11:01:12;;;;;;;4.65;1.60;;;21.50;91.70;;;;;;5069497;28;20448;-59
2022/08/28 11:03:44;;;;;;;5.30;2.20;;;21.40;91.50;;;;;;5068891;28;20063;-59
2022/08/28 11:06:28;;;;;;;5.20;1.60;;;21.30;91.40;;;;;;5078553;28;20130;-61
2022/08/28 11:08:57;;;;;;;6.32;2.03;;;21.40;90.80;;;;;;5052549;28;20059;-60
2022/08/28 11:11:47;;;;;;;3.13;1.52;;;21.70;91.60;;;;;;5078748;28;20399;-60
2022/08/28 11:14:35;;;;;;;3.88;1.40;;;21.90;90.50;;;;;;5071798;28;20036;-60
2022/08/28 11:17:08;;;;;;;6.75;2.10;;;22.10;90.80;;;;;;5074099;28;20048;-59
2022/08/28 11:19:55;;;;;;;5.53;1.90;;;22.20;90.80;;;;;;5068796;28;20043;-61
2022/08/28 11:22:39;;;;;;;3.55;1.98;;;22.40;90.80;;;;;;5068410;28;20052;-59
2022/08/28 11:25:20;;;;;;;;;;;22.20;90.60;;;;;;5059640;28;20035;-59
2022/08/28 11:28:23;;;;;;;7.20;2.05;;;21.90;90.80;;;;;;5079867;28;20002;-59
2022/08/28 11:31:11;;;;;;;6.68;2.00;;;21.50;91.00;;;;;;5082451;28;20473;-60
2022/08/28 11:33:44;;;;;;;7.40;1.83;;;21.50;92.00;;;;;;5049429;28;20095;-60
2022/08/28 11:36:18;;;;;;;7.13;2.25;;;21.40;92.50;;;;;;5051966;28;20040;-61
2022/08/28 11:38:44;;;;;;;5.38;2.08;;;21.50;92.50;;;;;;5081151;28;20051;-60
2022/08/28 11:41:21;;;;;;;6.13;1.80;;;21.60;92.60;;;;;;5082745;28;20048;-60
2022/08/28 11:44:07;;;;;;;7.28;2.00;;;22.00;92.70;;;;;;5074167;28;20438;-60
2022/08/28 11:46:36;;;;;;;5.85;2.42;;;21.90;91.90;;;;;;5077857;28;20067;-60
2022/08/28 11:49:33;;;;;;;4.85;1.95;;;21.90;92.00;;;;;;5067202;28;20197;-60
2022/08/28 11:52:17;;;;;;;6.35;2.00;;;21.90;92.00;;;;;;5056139;28;20127;-60
2022/08/28 11:55:20;;;;;;;6.03;1.98;;;22.20;92.30;;;;;;5080079;28;20104;-60
2022/08/28 11:57:49;;;;;;;7.00;1.87;;;21.80;90.60;;;;;;5059319;28;20514;-62
2022/08/28 12:00:47;;;;;;;8.35;2.05;;;21.80;91.30;;;;;;5060197;28;20048;-60
2022/08/28 12:03:42;;;;;;;5.50;1.55;;;22.00;91.00;;;;;;5068484;28;20044;-60
2022/08/28 12:06:09;;;;;;;4.03;1.45;;;22.20;90.50;;;;;;5080311;28;20473;-60
2022/08/28 12:08:47;;;;;;;2.42;1.23;;;22.40;90.40;;;;;;5072087;28;20027;-60
2022/08/28 12:11:38;;;;;;;3.28;1.30;;;22.70;88.40;;;;;;5073320;28;20036;-60
2022/08/28 12:14:04;;;;;;;3.53;1.70;;;22.90;87.80;;;;;;5082088;28;20131;-60
2022/08/28 12:17:07;;;;;;;3.28;1.00;;;22.70;87.40;;;;;;5067859;28;20044;-60
2022/08/28 12:19:35;;;;;;;3.55;1.48;;;22.40;86.70;;;;;;5088114;28;20062;-60
2022/08/28 12:22:09;;;;;;;5.28;1.60;;;22.30;88.70;;;;;;5084059;28;20332;-60
2022/08/28 12:24:42;;;;;;;3.10;1.40;;;22.30;89.10;;;;;;5067069;28;20521;-60
2022/08/28 12:27:09;;;;;;;3.33;1.50;;;22.30;89.20;;;;;;5076406;28;20044;-60
2022/08/28 12:29:44;;;;;;;5.40;1.65;;;22.00;89.30;;;;;;5076527;28;20036;-60
2022/08/28 12:32:31;;;;;;;4.57;1.60;;;22.00;89.60;;;;;;5089602;28;20553;-60
2022/08/28 12:34:57;;;;;;;3.20;1.38;;;21.90;89.80;;;;;;5082029;28;20406;-60
2022/08/28 12:37:42;;;;;;;4.53;1.33;;;21.90;90.00;;;;;;5084541;28;20535;-60
2022/08/28 12:40:14;;;;;;;4.07;1.65;;;21.70;89.90;;;;;;5065736;28;20044;-60
2022/08/28 12:42:50;;;;;;;7.18;1.98;;;22.00;90.10;;;;;;5076826;28;20043;-60
2022/08/28 12:45:21;;;;;;;4.88;1.67;;;22.10;90.30;;;;;;5082161;28;20094;-61
2022/08/28 12:47:50;;;;;;;7.88;1.88;;;22.30;90.10;;;;;;5055473;28;20461;-61
2022/08/28 12:50:37;;;;;;;2.92;1.48;;;22.00;89.60;;;;;;5092034;28;20486;-61
2022/08/28 12:53:06;;;;;;;3.85;1.67;;;22.00;90.50;;;;;;5089337;28;20039;-61
2022/08/28 12:55:33;;;;;;;7.28;2.17;;;21.90;90.50;;;;;;5063668;28;20043;-61
2022/08/28 12:57:59;;;;;;;5.28;1.70;;;21.90;90.60;;;;;;5083505;28;20040;-61
2022/08/28 13:00:31;;;;;;;3.45;1.52;;;21.90;90.70;;;;;;5080174;28;20051;-61
2022/08/28 13:02:59;;;;;;;3.78;1.42;;;21.90;90.80;;;;;;5081794;28;20525;-61
2022/08/28 13:05:38;;;;;;;5.70;1.63;;;22.20;91.20;;;;;;5087240;28;20024;-61
2022/08/28 13:08:11;;;;;;;8.32;1.80;;;22.30;90.60;;;;;;5082093;28;20044;-61
2022/08/28 13:10:47;;;;;;;5.63;2.03;;;22.30;90.60;;;;;;5074527;28;20486;-61
2022/08/28 13:13:25;;;;;;;4.82;1.63;;;22.10;90.50;;;;;;5066781;28;20050;-61
2022/08/28 13:16:00;;;;;;;3.85;1.38;;;21.90;90.70;;;;;;5089620;28;20078;-61
2022/08/28 13:18:36;;;;;;;3.88;1.80;;;21.60;91.00;;;;;;5061495;28;20051;-61